sensor_id;sensor_type;location;lat;lon;timestamp;temperature;humidity
66328;DHT22;53133;52.862;6.602;2022-09-27T00:02:07;11.30;99.90
66328;DHT22;53133;52.862;6.602;2022-09-27T00:04:32;11.30;99.90
66328;DHT22;53133;52.862;6.602;2022-09-27T00:06:59;11.30;99.90
66328;DHT22;53133;52.862;6.602;2022-09-27T00:09:24;11.20;99.90
66328;DHT22;53133;52.862;6.602;2022-09-27T00:11:50;11.20;99.90
66328;DHT22;53133;52.862;6.602;2022-09-27T00:14:16;11.10;99.90
66328;DHT22;53133;52.862;6.602;2022-09-27T00:16:43;11.10;99.90
66328;DHT22;53133;52.862;6.602;2022-09-27T00:19:17;11.10;99.90
66328;DHT22;53133;52.862;6.602;2022-09-27T00:21:44;11.00;99.90
66328;DHT22;53133;52.862;6.602;2022-09-27T00:24:12;11.00;99.90
66328;DHT22;53133;52.862;6.602;2022-09-27T00:26:38;11.00;99.90
66328;DHT22;53133;52.862;6.602;2022-09-27T00:29:03;10.90;99.90
66328;DHT22;53133;52.862;6.602;2022-09-27T00:31:30;10.90;99.90
66328;DHT22;53133;52.862;6.602;2022-09-27T00:33:58;10.90;99.90
66328;DHT22;53133;52.862;6.602;2022-09-27T00:36:25;10.90;99.90
66328;DHT22;53133;52.862;6.602;2022-09-27T00:38:51;10.90;99.90
66328;DHT22;53133;52.862;6.602;2022-09-27T00:41:23;10.90;99.90
66328;DHT22;53133;52.862;6.602;2022-09-27T00:46:46;10.90;99.90
66328;DHT22;53133;52.862;6.602;2022-09-27T00:49:24;10.90;99.90
66328;DHT22;53133;52.862;6.602;2022-09-27T00:51:56;10.80;99.90
66328;DHT22;53133;52.862;6.602;2022-09-27T00:54:25;10.90;99.90
66328;DHT22;53133;52.862;6.602;2022-09-27T00:56:51;10.80;99.90
66328;DHT22;53133;52.862;6.602;2022-09-27T00:59:48;10.80;99.90
66328;DHT22;53133;52.862;6.602;2022-09-27T01:02:15;10.80;99.90
66328;DHT22;53133;52.862;6.602;2022-09-27T01:04:43;10.80;99.90
66328;DHT22;53133;52.862;6.602;2022-09-27T01:07:09;10.80;99.90
66328;DHT22;53133;52.862;6.602;2022-09-27T01:09:34;10.80;99.90
66328;DHT22;53133;52.862;6.602;2022-09-27T01:20:49;10.80;99.90
66328;DHT22;53133;52.862;6.602;2022-09-27T01:26:41;10.90;99.90
66328;DHT22;53133;52.862;6.602;2022-09-27T01:34:01;10.80;99.90
66328;DHT22;53133;52.862;6.602;2022-09-27T01:41:46;10.80;99.90
66328;DHT22;53133;52.862;6.602;2022-09-27T01:46:56;10.80;99.90
66328;DHT22;53133;52.862;6.602;2022-09-27T01:49:41;10.80;99.90
66328;DHT22;53133;52.862;6.602;2022-09-27T01:52:10;10.80;99.90
66328;DHT22;53133;52.862;6.602;2022-09-27T01:54:51;10.80;99.90
66328;DHT22;53133;52.862;6.602;2022-09-27T01:57:21;10.70;99.90
66328;DHT22;53133;52.862;6.602;2022-09-27T02:00:12;10.70;99.90
66328;DHT22;53133;52.862;6.602;2022-09-27T02:02:43;10.70;99.90
66328;DHT22;53133;52.862;6.602;2022-09-27T02:05:11;10.70;99.90
66328;DHT22;53133;52.862;6.602;2022-09-27T02:07:52;10.60;99.90
66328;DHT22;53133;52.862;6.602;2022-09-27T02:10:24;10.60;99.90
66328;DHT22;53133;52.862;6.602;2022-09-27T02:15:43;10.50;99.90
66328;DHT22;53133;52.862;6.602;2022-09-27T02:18:18;10.60;99.90
66328;DHT22;53133;52.862;6.602;2022-09-27T02:20:55;10.60;99.90
66328;DHT22;53133;52.862;6.602;2022-09-27T02:26:17;10.60;99.90
66328;DHT22;53133;52.862;6.602;2022-09-27T02:28:53;10.50;99.90
66328;DHT22;53133;52.862;6.602;2022-09-27T02:31:20;10.50;99.90
66328;DHT22;53133;52.862;6.602;2022-09-27T02:34:00;10.50;99.90
66328;DHT22;53133;52.862;6.602;2022-09-27T02:36:27;10.50;99.90
66328;DHT22;53133;52.862;6.602;2022-09-27T02:38:53;10.50;99.90
66328;DHT22;53133;52.862;6.602;2022-09-27T02:41:21;10.50;99.90
66328;DHT22;53133;52.862;6.602;2022-09-27T02:43:49;10.50;99.90
66328;DHT22;53133;52.862;6.602;2022-09-27T02:49:10;10.50;99.90
66328;DHT22;53133;52.862;6.602;2022-09-27T02:54:32;10.40;99.90
66328;DHT22;53133;52.862;6.602;2022-09-27T03:00:08;10.40;99.90
66328;DHT22;53133;52.862;6.602;2022-09-27T03:03:12;10.40;99.90
66328;DHT22;53133;52.862;6.602;2022-09-27T03:05:57;10.40;99.90
66328;DHT22;53133;52.862;6.602;2022-09-27T03:08:23;10.40;99.90
66328;DHT22;53133;52.862;6.602;2022-09-27T03:10:49;10.30;99.90
66328;DHT22;53133;52.862;6.602;2022-09-27T03:13:15;10.40;99.90
66328;DHT22;53133;52.862;6.602;2022-09-27T03:15:40;10.30;99.90
66328;DHT22;53133;52.862;6.602;2022-09-27T03:18:06;10.30;99.90
66328;DHT22;53133;52.862;6.602;2022-09-27T03:20:32;10.30;99.90
66328;DHT22;53133;52.862;6.602;2022-09-27T03:22:58;10.30;99.90
66328;DHT22;53133;52.862;6.602;2022-09-27T03:25:23;10.30;99.90
66328;DHT22;53133;52.862;6.602;2022-09-27T03:27:49;10.30;99.90
66328;DHT22;53133;52.862;6.602;2022-09-27T03:30:14;10.30;99.90
66328;DHT22;53133;52.862;6.602;2022-09-27T03:32:44;10.30;99.90
66328;DHT22;53133;52.862;6.602;2022-09-27T03:35:13;10.30;99.90
66328;DHT22;53133;52.862;6.602;2022-09-27T03:37:39;10.30;99.90
66328;DHT22;53133;52.862;6.602;2022-09-27T03:40:05;10.30;99.90
66328;DHT22;53133;52.862;6.602;2022-09-27T03:42:31;10.30;99.90
66328;DHT22;53133;52.862;6.602;2022-09-27T03:44:57;10.30;99.90
66328;DHT22;53133;52.862;6.602;2022-09-27T03:47:22;10.30;99.90
66328;DHT22;53133;52.862;6.602;2022-09-27T03:49:48;10.30;99.90
66328;DHT22;53133;52.862;6.602;2022-09-27T03:52:14;10.30;99.90
66328;DHT22;53133;52.862;6.602;2022-09-27T03:54:41;10.30;99.90
66328;DHT22;53133;52.862;6.602;2022-09-27T03:57:07;10.30;99.90
66328;DHT22;53133;52.862;6.602;2022-09-27T03:59:33;10.30;99.90
66328;DHT22;53133;52.862;6.602;2022-09-27T04:01:58;10.30;99.90
66328;DHT22;53133;52.862;6.602;2022-09-27T04:04:24;10.40;99.90
66328;DHT22;53133;52.862;6.602;2022-09-27T04:06:49;10.30;99.90
66328;DHT22;53133;52.862;6.602;2022-09-27T04:09:15;10.40;99.90
66328;DHT22;53133;52.862;6.602;2022-09-27T04:11:40;10.30;99.90
66328;DHT22;53133;52.862;6.602;2022-09-27T04:14:06;10.30;99.90
66328;DHT22;53133;52.862;6.602;2022-09-27T04:16:33;10.30;99.90
66328;DHT22;53133;52.862;6.602;2022-09-27T04:18:59;10.30;99.90
66328;DHT22;53133;52.862;6.602;2022-09-27T04:21:26;10.30;99.90
66328;DHT22;53133;52.862;6.602;2022-09-27T04:23:52;10.30;99.90
66328;DHT22;53133;52.862;6.602;2022-09-27T04:26:17;10.30;99.90
66328;DHT22;53133;52.862;6.602;2022-09-27T04:28:43;10.20;99.90
66328;DHT22;53133;52.862;6.602;2022-09-27T04:31:10;10.30;99.90
66328;DHT22;53133;52.862;6.602;2022-09-27T04:33:36;10.20;99.90
66328;DHT22;53133;52.862;6.602;2022-09-27T04:36:01;10.20;99.90
66328;DHT22;53133;52.862;6.602;2022-09-27T04:38:45;10.20;99.90
66328;DHT22;53133;52.862;6.602;2022-09-27T04:41:12;10.20;99.90
66328;DHT22;53133;52.862;6.602;2022-09-27T04:43:40;10.20;99.90
66328;DHT22;53133;52.862;6.602;2022-09-27T04:46:05;10.20;99.90
66328;DHT22;53133;52.862;6.602;2022-09-27T04:48:31;10.20;99.90
66328;DHT22;53133;52.862;6.602;2022-09-27T04:50:58;10.20;99.90
66328;DHT22;53133;52.862;6.602;2022-09-27T04:53:27;10.20;99.90
66328;DHT22;53133;52.862;6.602;2022-09-27T04:55:54;10.20;99.90
66328;DHT22;53133;52.862;6.602;2022-09-27T04:58:23;10.20;99.90
66328;DHT22;53133;52.862;6.602;2022-09-27T05:00:49;10.20;99.90
66328;DHT22;53133;52.862;6.602;2022-09-27T05:03:21;10.20;99.90
66328;DHT22;53133;52.862;6.602;2022-09-27T05:05:46;10.20;99.90
66328;DHT22;53133;52.862;6.602;2022-09-27T05:08:12;10.20;99.90
66328;DHT22;53133;52.862;6.602;2022-09-27T05:10:38;10.20;99.90
66328;DHT22;53133;52.862;6.602;2022-09-27T05:13:03;10.20;99.90
66328;DHT22;53133;52.862;6.602;2022-09-27T05:15:29;10.10;99.90
66328;DHT22;53133;52.862;6.602;2022-09-27T05:17:55;10.10;99.90
66328;DHT22;53133;52.862;6.602;2022-09-27T05:20:20;10.10;99.90
66328;DHT22;53133;52.862;6.602;2022-09-27T05:22:46;10.10;99.90
66328;DHT22;53133;52.862;6.602;2022-09-27T05:25:12;10.10;99.90
66328;DHT22;53133;52.862;6.602;2022-09-27T05:27:38;10.10;99.90
66328;DHT22;53133;52.862;6.602;2022-09-27T05:30:04;10.00;99.90
66328;DHT22;53133;52.862;6.602;2022-09-27T05:32:32;10.00;99.90
66328;DHT22;53133;52.862;6.602;2022-09-27T05:34:59;10.00;99.90
66328;DHT22;53133;52.862;6.602;2022-09-27T05:37:24;9.90;99.90
66328;DHT22;53133;52.862;6.602;2022-09-27T05:39:50;9.90;99.90
66328;DHT22;53133;52.862;6.602;2022-09-27T05:42:16;9.90;99.90
66328;DHT22;53133;52.862;6.602;2022-09-27T05:44:42;9.80;99.90
66328;DHT22;53133;52.862;6.602;2022-09-27T05:47:12;9.80;99.90
66328;DHT22;53133;52.862;6.602;2022-09-27T05:49:37;9.80;99.90
66328;DHT22;53133;52.862;6.602;2022-09-27T05:52:05;9.80;99.90
66328;DHT22;53133;52.862;6.602;2022-09-27T05:54:30;9.70;99.90
66328;DHT22;53133;52.862;6.602;2022-09-27T05:56:56;9.70;99.90
66328;DHT22;53133;52.862;6.602;2022-09-27T05:59:26;9.70;99.90
66328;DHT22;53133;52.862;6.602;2022-09-27T06:01:52;9.70;99.90
66328;DHT22;53133;52.862;6.602;2022-09-27T06:04:18;9.70;99.90
66328;DHT22;53133;52.862;6.602;2022-09-27T06:06:44;9.80;99.90
66328;DHT22;53133;52.862;6.602;2022-09-27T06:09:11;9.80;99.90
66328;DHT22;53133;52.862;6.602;2022-09-27T06:11:37;9.80;99.90
66328;DHT22;53133;52.862;6.602;2022-09-27T06:14:02;9.80;99.90
66328;DHT22;53133;52.862;6.602;2022-09-27T06:16:29;9.90;99.90
66328;DHT22;53133;52.862;6.602;2022-09-27T06:18:54;9.80;99.90
66328;DHT22;53133;52.862;6.602;2022-09-27T06:21:20;9.80;99.90
66328;DHT22;53133;52.862;6.602;2022-09-27T06:23:47;9.90;99.90
66328;DHT22;53133;52.862;6.602;2022-09-27T06:26:12;9.80;99.90
66328;DHT22;53133;52.862;6.602;2022-09-27T06:28:38;9.80;99.90
66328;DHT22;53133;52.862;6.602;2022-09-27T06:31:05;9.90;99.90
66328;DHT22;53133;52.862;6.602;2022-09-27T06:33:33;9.80;99.90
66328;DHT22;53133;52.862;6.602;2022-09-27T06:36:03;9.90;99.90
66328;DHT22;53133;52.862;6.602;2022-09-27T06:38:29;9.90;99.90
66328;DHT22;53133;52.862;6.602;2022-09-27T06:40:59;9.90;99.90
66328;DHT22;53133;52.862;6.602;2022-09-27T06:43:25;10.00;99.90
66328;DHT22;53133;52.862;6.602;2022-09-27T06:45:52;10.00;99.90
66328;DHT22;53133;52.862;6.602;2022-09-27T06:48:18;10.10;99.90
66328;DHT22;53133;52.862;6.602;2022-09-27T06:50:45;10.10;99.90
66328;DHT22;53133;52.862;6.602;2022-09-27T06:53:13;10.10;99.90
66328;DHT22;53133;52.862;6.602;2022-09-27T06:55:39;10.20;99.90
66328;DHT22;53133;52.862;6.602;2022-09-27T06:58:05;10.20;99.90
66328;DHT22;53133;52.862;6.602;2022-09-27T07:00:51;10.20;99.90
66328;DHT22;53133;52.862;6.602;2022-09-27T07:03:21;10.20;99.90
66328;DHT22;53133;52.862;6.602;2022-09-27T07:05:55;10.20;99.90
66328;DHT22;53133;52.862;6.602;2022-09-27T07:08:22;10.20;99.90
66328;DHT22;53133;52.862;6.602;2022-09-27T07:10:49;10.20;99.90
66328;DHT22;53133;52.862;6.602;2022-09-27T07:13:14;10.30;99.90
66328;DHT22;53133;52.862;6.602;2022-09-27T07:15:40;10.30;99.90
66328;DHT22;53133;52.862;6.602;2022-09-27T07:18:07;10.20;99.90
66328;DHT22;53133;52.862;6.602;2022-09-27T07:20:33;10.30;99.90
66328;DHT22;53133;52.862;6.602;2022-09-27T07:23:07;10.30;99.90
66328;DHT22;53133;52.862;6.602;2022-09-27T07:25:33;10.30;99.90
66328;DHT22;53133;52.862;6.602;2022-09-27T07:28:06;10.40;99.90
66328;DHT22;53133;52.862;6.602;2022-09-27T07:30:32;10.40;99.90
66328;DHT22;53133;52.862;6.602;2022-09-27T07:33:00;10.40;99.90
66328;DHT22;53133;52.862;6.602;2022-09-27T07:35:26;10.40;99.90
66328;DHT22;53133;52.862;6.602;2022-09-27T07:37:52;10.40;99.90
66328;DHT22;53133;52.862;6.602;2022-09-27T07:40:19;10.50;99.90
66328;DHT22;53133;52.862;6.602;2022-09-27T07:42:45;10.40;99.90
66328;DHT22;53133;52.862;6.602;2022-09-27T07:45:10;10.50;99.90
66328;DHT22;53133;52.862;6.602;2022-09-27T07:47:39;10.50;99.90
66328;DHT22;53133;52.862;6.602;2022-09-27T07:50:07;10.50;99.90
66328;DHT22;53133;52.862;6.602;2022-09-27T07:52:42;10.60;99.90
66328;DHT22;53133;52.862;6.602;2022-09-27T07:55:09;10.60;99.90
66328;DHT22;53133;52.862;6.602;2022-09-27T07:57:36;10.60;99.90
66328;DHT22;53133;52.862;6.602;2022-09-27T08:00:04;10.60;99.90
66328;DHT22;53133;52.862;6.602;2022-09-27T08:02:30;10.60;99.90
66328;DHT22;53133;52.862;6.602;2022-09-27T08:05:01;10.70;99.90
66328;DHT22;53133;52.862;6.602;2022-09-27T08:07:27;10.70;99.90
66328;DHT22;53133;52.862;6.602;2022-09-27T08:09:53;10.80;99.90
66328;DHT22;53133;52.862;6.602;2022-09-27T08:12:19;10.90;99.90
66328;DHT22;53133;52.862;6.602;2022-09-27T08:14:46;10.90;99.90
66328;DHT22;53133;52.862;6.602;2022-09-27T08:17:12;11.00;99.90
66328;DHT22;53133;52.862;6.602;2022-09-27T08:19:38;11.10;99.90
66328;DHT22;53133;52.862;6.602;2022-09-27T08:22:08;11.20;99.90
66328;DHT22;53133;52.862;6.602;2022-09-27T08:24:33;11.40;99.90
66328;DHT22;53133;52.862;6.602;2022-09-27T08:27:00;11.50;99.90
66328;DHT22;53133;52.862;6.602;2022-09-27T08:29:26;11.50;99.90
66328;DHT22;53133;52.862;6.602;2022-09-27T08:31:52;11.50;99.90
66328;DHT22;53133;52.862;6.602;2022-09-27T08:34:19;11.50;99.90
66328;DHT22;53133;52.862;6.602;2022-09-27T08:36:45;11.50;99.90
66328;DHT22;53133;52.862;6.602;2022-09-27T08:39:10;11.50;99.90
66328;DHT22;53133;52.862;6.602;2022-09-27T08:44:13;11.50;99.90
66328;DHT22;53133;52.862;6.602;2022-09-27T08:49:35;11.60;99.90
66328;DHT22;53133;52.862;6.602;2022-09-27T08:52:07;11.60;99.90
66328;DHT22;53133;52.862;6.602;2022-09-27T08:54:36;11.70;99.90
66328;DHT22;53133;52.862;6.602;2022-09-27T08:57:10;11.70;99.90
66328;DHT22;53133;52.862;6.602;2022-09-27T08:59:53;11.80;99.90
66328;DHT22;53133;52.862;6.602;2022-09-27T09:02:23;11.80;99.90
66328;DHT22;53133;52.862;6.602;2022-09-27T09:04:53;11.90;99.90
66328;DHT22;53133;52.862;6.602;2022-09-27T09:07:46;11.90;99.90
66328;DHT22;53133;52.862;6.602;2022-09-27T09:10:27;12.00;99.90
66328;DHT22;53133;52.862;6.602;2022-09-27T09:19:01;12.20;99.90
66328;DHT22;53133;52.862;6.602;2022-09-27T09:26:55;12.20;99.90
66328;DHT22;53133;52.862;6.602;2022-09-27T09:29:37;12.20;99.90
66328;DHT22;53133;52.862;6.602;2022-09-27T09:34:44;12.10;99.90
66328;DHT22;53133;52.862;6.602;2022-09-27T09:37:37;12.10;99.90
66328;DHT22;53133;52.862;6.602;2022-09-27T09:42:39;12.10;99.90
66328;DHT22;53133;52.862;6.602;2022-09-27T09:45:30;12.20;99.90
66328;DHT22;53133;52.862;6.602;2022-09-27T09:48:23;12.20;99.90
66328;DHT22;53133;52.862;6.602;2022-09-27T09:50:54;12.20;99.90
66328;DHT22;53133;52.862;6.602;2022-09-27T09:56:30;12.30;99.90
66328;DHT22;53133;52.862;6.602;2022-09-27T09:58:59;12.30;99.90
66328;DHT22;53133;52.862;6.602;2022-09-27T10:01:41;12.30;99.90
66328;DHT22;53133;52.862;6.602;2022-09-27T10:04:17;12.30;99.90
66328;DHT22;53133;52.862;6.602;2022-09-27T10:06:44;12.40;99.90
66328;DHT22;53133;52.862;6.602;2022-09-27T10:09:30;12.40;99.90
66328;DHT22;53133;52.862;6.602;2022-09-27T10:11:57;12.40;99.90
66328;DHT22;53133;52.862;6.602;2022-09-27T10:14:25;12.40;99.90
66328;DHT22;53133;52.862;6.602;2022-09-27T10:16:58;12.40;99.90
66328;DHT22;53133;52.862;6.602;2022-09-27T10:19:35;12.40;99.90
66328;DHT22;53133;52.862;6.602;2022-09-27T10:22:16;12.50;99.90
66328;DHT22;53133;52.862;6.602;2022-09-27T10:24:55;12.50;99.90
66328;DHT22;53133;52.862;6.602;2022-09-27T10:27:22;12.50;99.90
66328;DHT22;53133;52.862;6.602;2022-09-27T10:29:58;12.50;99.90
66328;DHT22;53133;52.862;6.602;2022-09-27T10:32:30;12.50;99.90
66328;DHT22;53133;52.862;6.602;2022-09-27T10:35:17;12.50;99.90
66328;DHT22;53133;52.862;6.602;2022-09-27T10:37:43;12.50;99.90
66328;DHT22;53133;52.862;6.602;2022-09-27T10:40:26;12.50;99.90
66328;DHT22;53133;52.862;6.602;2022-09-27T10:42:52;12.60;99.90
66328;DHT22;53133;52.862;6.602;2022-09-27T10:45:28;12.60;99.90
66328;DHT22;53133;52.862;6.602;2022-09-27T10:47:54;12.60;99.90
66328;DHT22;53133;52.862;6.602;2022-09-27T10:50:26;12.60;99.90
66328;DHT22;53133;52.862;6.602;2022-09-27T10:52:59;12.70;99.90
66328;DHT22;53133;52.862;6.602;2022-09-27T10:55:26;12.80;99.90
66328;DHT22;53133;52.862;6.602;2022-09-27T10:57:53;12.80;99.90
66328;DHT22;53133;52.862;6.602;2022-09-27T11:00:25;12.90;99.90
66328;DHT22;53133;52.862;6.602;2022-09-27T11:03:13;12.80;99.90
66328;DHT22;53133;52.862;6.602;2022-09-27T11:05:39;12.80;99.90
66328;DHT22;53133;52.862;6.602;2022-09-27T11:10:43;12.70;99.90
66328;DHT22;53133;52.862;6.602;2022-09-27T11:13:18;12.80;99.90
66328;DHT22;53133;52.862;6.602;2022-09-27T11:32:18;12.20;99.90
66328;DHT22;53133;52.862;6.602;2022-09-27T11:34:53;12.10;99.90
66328;DHT22;53133;52.862;6.602;2022-09-27T11:40:22;11.90;99.90
66328;DHT22;53133;52.862;6.602;2022-09-27T11:51:37;12.00;99.90
66328;DHT22;53133;52.862;6.602;2022-09-27T11:57:17;12.30;99.90
66328;DHT22;53133;52.862;6.602;2022-09-27T12:00:07;12.40;99.90
66328;DHT22;53133;52.862;6.602;2022-09-27T12:10:48;12.50;99.90
66328;DHT22;53133;52.862;6.602;2022-09-27T12:13:17;12.50;99.90
66328;DHT22;53133;52.862;6.602;2022-09-27T12:15:46;12.50;99.90
66328;DHT22;53133;52.862;6.602;2022-09-27T12:18:30;12.50;99.90
66328;DHT22;53133;52.862;6.602;2022-09-27T12:21:02;12.50;99.90
66328;DHT22;53133;52.862;6.602;2022-09-27T12:23:41;12.60;99.90
66328;DHT22;53133;52.862;6.602;2022-09-27T12:26:16;12.60;99.90
66328;DHT22;53133;52.862;6.602;2022-09-27T12:28:57;12.70;99.90
66328;DHT22;53133;52.862;6.602;2022-09-27T12:31:26;12.80;99.90
66328;DHT22;53133;52.862;6.602;2022-09-27T12:36:35;13.10;99.90
66328;DHT22;53133;52.862;6.602;2022-09-27T12:39:22;13.20;99.90
66328;DHT22;53133;52.862;6.602;2022-09-27T12:41:55;13.30;99.90
66328;DHT22;53133;52.862;6.602;2022-09-27T12:44:27;13.30;99.90
66328;DHT22;53133;52.862;6.602;2022-09-27T12:52:36;13.20;99.90
66328;DHT22;53133;52.862;6.602;2022-09-27T13:00:16;13.20;99.90
66328;DHT22;53133;52.862;6.602;2022-09-27T13:13:20;13.20;99.90
66328;DHT22;53133;52.862;6.602;2022-09-27T13:15:47;13.30;99.90
66328;DHT22;53133;52.862;6.602;2022-09-27T13:26:54;13.30;99.90
66328;DHT22;53133;52.862;6.602;2022-09-27T13:29:25;13.20;99.90
66328;DHT22;53133;52.862;6.602;2022-09-27T13:34:45;13.20;99.90
66328;DHT22;53133;52.862;6.602;2022-09-27T13:45:33;13.20;99.90
66328;DHT22;53133;52.862;6.602;2022-09-27T13:48:01;13.20;99.90
66328;DHT22;53133;52.862;6.602;2022-09-27T13:50:55;13.20;99.90
66328;DHT22;53133;52.862;6.602;2022-09-27T13:53:35;13.20;99.90
66328;DHT22;53133;52.862;6.602;2022-09-27T13:56:02;13.20;99.90
66328;DHT22;53133;52.862;6.602;2022-09-27T14:01:27;13.30;99.90
66328;DHT22;53133;52.862;6.602;2022-09-27T14:04:01;13.20;99.90
66328;DHT22;53133;52.862;6.602;2022-09-27T14:06:34;13.20;99.90
66328;DHT22;53133;52.862;6.602;2022-09-27T14:09:47;13.20;99.90
66328;DHT22;53133;52.862;6.602;2022-09-27T14:12:11;13.10;99.90
66328;DHT22;53133;52.862;6.602;2022-09-27T14:14:38;13.10;99.90
66328;DHT22;53133;52.862;6.602;2022-09-27T14:17:08;13.00;99.90
66328;DHT22;53133;52.862;6.602;2022-09-27T14:19:38;13.00;99.90
66328;DHT22;53133;52.862;6.602;2022-09-27T14:22:20;13.00;99.90
66328;DHT22;53133;52.862;6.602;2022-09-27T14:24:54;12.90;99.90
66328;DHT22;53133;52.862;6.602;2022-09-27T14:27:34;12.60;99.90
66328;DHT22;53133;52.862;6.602;2022-09-27T14:30:14;12.40;99.90
66328;DHT22;53133;52.862;6.602;2022-09-27T14:32:48;12.10;99.90
66328;DHT22;53133;52.862;6.602;2022-09-27T14:35:19;11.90;99.90
66328;DHT22;53133;52.862;6.602;2022-09-27T14:38:12;11.70;99.90
66328;DHT22;53133;52.862;6.602;2022-09-27T14:40:43;11.50;99.90
66328;DHT22;53133;52.862;6.602;2022-09-27T14:43:14;11.40;99.90
66328;DHT22;53133;52.862;6.602;2022-09-27T14:45:41;11.30;99.90
66328;DHT22;53133;52.862;6.602;2022-09-27T14:48:34;11.20;99.90
66328;DHT22;53133;52.862;6.602;2022-09-27T14:53:32;11.10;99.90
66328;DHT22;53133;52.862;6.602;2022-09-27T14:55:59;11.10;99.90
66328;DHT22;53133;52.862;6.602;2022-09-27T14:58:25;11.20;99.90
66328;DHT22;53133;52.862;6.602;2022-09-27T15:00:51;11.20;99.90
66328;DHT22;53133;52.862;6.602;2022-09-27T15:03:28;11.30;99.90
66328;DHT22;53133;52.862;6.602;2022-09-27T15:05:57;11.40;99.90
66328;DHT22;53133;52.862;6.602;2022-09-27T15:08:26;11.50;99.90
66328;DHT22;53133;52.862;6.602;2022-09-27T15:10:55;11.50;99.90
66328;DHT22;53133;52.862;6.602;2022-09-27T15:13:23;11.50;99.90
66328;DHT22;53133;52.862;6.602;2022-09-27T15:15:51;11.60;99.90
66328;DHT22;53133;52.862;6.602;2022-09-27T15:18:42;11.60;99.90
66328;DHT22;53133;52.862;6.602;2022-09-27T15:21:10;11.60;99.90
66328;DHT22;53133;52.862;6.602;2022-09-27T15:23:45;11.70;99.90
66328;DHT22;53133;52.862;6.602;2022-09-27T15:26:15;11.70;99.90
66328;DHT22;53133;52.862;6.602;2022-09-27T15:28:47;11.70;99.90
66328;DHT22;53133;52.862;6.602;2022-09-27T15:31:14;11.80;99.90
66328;DHT22;53133;52.862;6.602;2022-09-27T15:33:40;11.80;99.90
66328;DHT22;53133;52.862;6.602;2022-09-27T15:36:08;11.80;99.90
66328;DHT22;53133;52.862;6.602;2022-09-27T15:38:40;11.80;99.90
66328;DHT22;53133;52.862;6.602;2022-09-27T15:41:15;11.80;99.90
66328;DHT22;53133;52.862;6.602;2022-09-27T15:43:49;11.80;99.90
66328;DHT22;53133;52.862;6.602;2022-09-27T15:49:17;11.70;99.90
66328;DHT22;53133;52.862;6.602;2022-09-27T15:51:48;11.60;99.90
66328;DHT22;53133;52.862;6.602;2022-09-27T15:54:17;11.70;99.90
66328;DHT22;53133;52.862;6.602;2022-09-27T15:56:44;11.60;99.90
66328;DHT22;53133;52.862;6.602;2022-09-27T15:59:22;11.60;99.90
66328;DHT22;53133;52.862;6.602;2022-09-27T16:01:48;11.60;99.90
66328;DHT22;53133;52.862;6.602;2022-09-27T16:04:17;11.60;99.90
66328;DHT22;53133;52.862;6.602;2022-09-27T16:06:43;11.60;99.90
66328;DHT22;53133;52.862;6.602;2022-09-27T16:09:14;11.60;99.90
66328;DHT22;53133;52.862;6.602;2022-09-27T16:11:47;11.60;99.90
66328;DHT22;53133;52.862;6.602;2022-09-27T16:14:14;11.60;99.90
66328;DHT22;53133;52.862;6.602;2022-09-27T16:16:50;11.60;99.90
66328;DHT22;53133;52.862;6.602;2022-09-27T16:19:16;11.60;99.90
66328;DHT22;53133;52.862;6.602;2022-09-27T16:21:41;11.60;99.90
66328;DHT22;53133;52.862;6.602;2022-09-27T16:24:11;11.60;99.90
66328;DHT22;53133;52.862;6.602;2022-09-27T16:26:37;11.60;99.90
66328;DHT22;53133;52.862;6.602;2022-09-27T16:29:04;11.60;99.90
66328;DHT22;53133;52.862;6.602;2022-09-27T16:31:29;11.60;99.90
66328;DHT22;53133;52.862;6.602;2022-09-27T16:33:55;11.60;99.90
66328;DHT22;53133;52.862;6.602;2022-09-27T16:36:21;11.60;99.90
66328;DHT22;53133;52.862;6.602;2022-09-27T16:38:50;11.60;99.90
66328;DHT22;53133;52.862;6.602;2022-09-27T16:41:16;11.50;99.90
66328;DHT22;53133;52.862;6.602;2022-09-27T16:43:42;11.50;99.90
66328;DHT22;53133;52.862;6.602;2022-09-27T16:46:10;11.50;99.90
66328;DHT22;53133;52.862;6.602;2022-09-27T16:48:38;11.50;99.90
66328;DHT22;53133;52.862;6.602;2022-09-27T16:51:14;11.50;99.90
66328;DHT22;53133;52.862;6.602;2022-09-27T16:53:59;11.50;99.90
66328;DHT22;53133;52.862;6.602;2022-09-27T16:56:25;11.40;99.90
66328;DHT22;53133;52.862;6.602;2022-09-27T16:58:51;11.40;99.90
66328;DHT22;53133;52.862;6.602;2022-09-27T17:01:17;11.40;99.90
66328;DHT22;53133;52.862;6.602;2022-09-27T17:03:47;11.30;99.90
66328;DHT22;53133;52.862;6.602;2022-09-27T17:06:15;11.30;99.90
66328;DHT22;53133;52.862;6.602;2022-09-27T17:08:40;11.30;99.90
66328;DHT22;53133;52.862;6.602;2022-09-27T17:11:06;11.30;99.90
66328;DHT22;53133;52.862;6.602;2022-09-27T17:13:33;11.30;99.90
66328;DHT22;53133;52.862;6.602;2022-09-27T17:16:02;11.30;99.90
66328;DHT22;53133;52.862;6.602;2022-09-27T17:18:28;11.30;99.90
66328;DHT22;53133;52.862;6.602;2022-09-27T17:21:02;11.20;99.90
66328;DHT22;53133;52.862;6.602;2022-09-27T17:23:29;11.20;99.90
66328;DHT22;53133;52.862;6.602;2022-09-27T17:26:04;11.20;99.90
66328;DHT22;53133;52.862;6.602;2022-09-27T17:28:31;11.10;99.90
66328;DHT22;53133;52.862;6.602;2022-09-27T17:31:05;11.10;99.90
66328;DHT22;53133;52.862;6.602;2022-09-27T17:33:33;11.10;99.90
66328;DHT22;53133;52.862;6.602;2022-09-27T17:36:00;11.10;99.90
66328;DHT22;53133;52.862;6.602;2022-09-27T17:38:28;11.00;99.90
66328;DHT22;53133;52.862;6.602;2022-09-27T17:41:05;11.00;99.90
66328;DHT22;53133;52.862;6.602;2022-09-27T17:43:31;11.00;99.90
66328;DHT22;53133;52.862;6.602;2022-09-27T17:46:03;10.90;99.90
66328;DHT22;53133;52.862;6.602;2022-09-27T17:48:29;10.90;99.90
66328;DHT22;53133;52.862;6.602;2022-09-27T17:51:13;10.90;99.90
66328;DHT22;53133;52.862;6.602;2022-09-27T17:53:39;10.80;99.90
66328;DHT22;53133;52.862;6.602;2022-09-27T17:56:05;10.80;99.90
66328;DHT22;53133;52.862;6.602;2022-09-27T17:58:32;10.80;99.90
66328;DHT22;53133;52.862;6.602;2022-09-27T18:01:05;10.70;99.90
66328;DHT22;53133;52.862;6.602;2022-09-27T18:03:32;10.70;99.90
66328;DHT22;53133;52.862;6.602;2022-09-27T18:05:58;10.70;99.90
66328;DHT22;53133;52.862;6.602;2022-09-27T18:08:28;10.60;99.90
66328;DHT22;53133;52.862;6.602;2022-09-27T18:10:55;10.60;99.90
66328;DHT22;53133;52.862;6.602;2022-09-27T18:13:20;10.50;99.90
66328;DHT22;53133;52.862;6.602;2022-09-27T18:15:56;10.50;99.90
66328;DHT22;53133;52.862;6.602;2022-09-27T18:18:23;10.50;99.90
66328;DHT22;53133;52.862;6.602;2022-09-27T18:20:52;10.50;99.90
66328;DHT22;53133;52.862;6.602;2022-09-27T18:23:18;10.40;99.90
66328;DHT22;53133;52.862;6.602;2022-09-27T18:25:43;10.40;99.90
66328;DHT22;53133;52.862;6.602;2022-09-27T18:28:18;10.40;99.90
66328;DHT22;53133;52.862;6.602;2022-09-27T18:30:44;10.40;99.90
66328;DHT22;53133;52.862;6.602;2022-09-27T18:33:09;10.40;99.90